sensor_id;sensor_type;location;lat;lon;timestamp;P1;durP1;ratioP1;P2;durP2;ratioP2
67272;SDS011;54190;49.770;9.250;2022-10-16T00:01:58;6.43;;;2.37;;
67272;SDS011;54190;49.770;9.250;2022-10-16T00:04:24;3.50;;;1.90;;
67272;SDS011;54190;49.770;9.250;2022-10-16T00:06:50;4.53;;;2.10;;
67272;SDS011;54190;49.770;9.250;2022-10-16T00:09:15;3.50;;;1.80;;
67272;SDS011;54190;49.770;9.250;2022-10-16T00:11:41;9.80;;;2.10;;
67272;SDS011;54190;49.770;9.250;2022-10-16T00:14:09;3.00;;;2.10;;
67272;SDS011;54190;49.770;9.250;2022-10-16T00:16:37;3.33;;;1.80;;
67272;SDS011;54190;49.770;9.250;2022-10-16T00:19:03;3.23;;;2.10;;
67272;SDS011;54190;49.770;9.250;2022-10-16T00:21:29;3.20;;;2.03;;
67272;SDS011;54190;49.770;9.250;2022-10-16T00:24:03;7.17;;;2.30;;
67272;SDS011;54190;49.770;9.250;2022-10-16T00:26:31;3.17;;;1.60;;
67272;SDS011;54190;49.770;9.250;2022-10-16T00:28:57;3.00;;;1.70;;
67272;SDS011;54190;49.770;9.250;2022-10-16T00:31:24;3.00;;;1.40;;
67272;SDS011;54190;49.770;9.250;2022-10-16T00:33:50;5.70;;;1.70;;
67272;SDS011;54190;49.770;9.250;2022-10-16T00:36:17;3.33;;;1.43;;
67272;SDS011;54190;49.770;9.250;2022-10-16T00:38:46;1.97;;;1.13;;
67272;SDS011;54190;49.770;9.250;2022-10-16T00:41:16;1.80;;;1.10;;
67272;SDS011;54190;49.770;9.250;2022-10-16T00:43:46;3.57;;;1.10;;
67272;SDS011;54190;49.770;9.250;2022-10-16T00:51:22;2.37;;;1.10;;
67272;SDS011;54190;49.770;9.250;2022-10-16T00:53:50;1.90;;;1.10;;
67272;SDS011;54190;49.770;9.250;2022-10-16T00:56:17;1.80;;;0.97;;
67272;SDS011;54190;49.770;9.250;2022-10-16T00:58:43;2.70;;;1.17;;
67272;SDS011;54190;49.770;9.250;2022-10-16T01:01:09;2.40;;;1.10;;
67272;SDS011;54190;49.770;9.250;2022-10-16T01:03:36;5.00;;;0.90;;
67272;SDS011;54190;49.770;9.250;2022-10-16T01:08:53;1.83;;;0.90;;
67272;SDS011;54190;49.770;9.250;2022-10-16T01:11:32;2.67;;;0.87;;
67272;SDS011;54190;49.770;9.250;2022-10-16T01:14:25;1.60;;;0.80;;
67272;SDS011;54190;49.770;9.250;2022-10-16T01:22:39;4.70;;;0.90;;
67272;SDS011;54190;49.770;9.250;2022-10-16T01:28:13;1.90;;;0.97;;
67272;SDS011;54190;49.770;9.250;2022-10-16T01:30:41;1.67;;;0.90;;
67272;SDS011;54190;49.770;9.250;2022-10-16T01:33:10;2.70;;;0.93;;
67272;SDS011;54190;49.770;9.250;2022-10-16T01:35:47;2.57;;;0.90;;
67272;SDS011;54190;49.770;9.250;2022-10-16T01:38:24;1.70;;;1.00;;
67272;SDS011;54190;49.770;9.250;2022-10-16T01:41:01;3.80;;;1.00;;
67272;SDS011;54190;49.770;9.250;2022-10-16T01:43:53;5.40;;;1.20;;
67272;SDS011;54190;49.770;9.250;2022-10-16T01:46:22;2.30;;;0.93;;
67272;SDS011;54190;49.770;9.250;2022-10-16T01:48:48;1.60;;;0.83;;
67272;SDS011;54190;49.770;9.250;2022-10-16T01:51:16;3.13;;;1.10;;
67272;SDS011;54190;49.770;9.250;2022-10-16T01:53:54;5.07;;;1.20;;
67272;SDS011;54190;49.770;9.250;2022-10-16T01:56:22;4.20;;;1.00;;
67272;SDS011;54190;49.770;9.250;2022-10-16T01:58:51;3.50;;;0.90;;
67272;SDS011;54190;49.770;9.250;2022-10-16T02:01:24;2.47;;;0.90;;
67272;SDS011;54190;49.770;9.250;2022-10-16T02:03:54;4.43;;;1.20;;
67272;SDS011;54190;49.770;9.250;2022-10-16T02:06:22;2.37;;;0.90;;
67272;SDS011;54190;49.770;9.250;2022-10-16T02:08:48;4.80;;;1.00;;
67272;SDS011;54190;49.770;9.250;2022-10-16T02:11:14;2.27;;;1.00;;
67272;SDS011;54190;49.770;9.250;2022-10-16T02:13:51;3.83;;;1.00;;
67272;SDS011;54190;49.770;9.250;2022-10-16T02:16:20;1.87;;;0.97;;
67272;SDS011;54190;49.770;9.250;2022-10-16T02:21:20;1.80;;;0.80;;
67272;SDS011;54190;49.770;9.250;2022-10-16T02:26:46;2.93;;;1.00;;
67272;SDS011;54190;49.770;9.250;2022-10-16T02:29:16;3.73;;;0.93;;
67272;SDS011;54190;49.770;9.250;2022-10-16T02:31:46;2.10;;;1.00;;
67272;SDS011;54190;49.770;9.250;2022-10-16T02:34:16;2.47;;;0.90;;
67272;SDS011;54190;49.770;9.250;2022-10-16T02:36:43;2.70;;;0.83;;
67272;SDS011;54190;49.770;9.250;2022-10-16T02:39:11;4.27;;;1.10;;
67272;SDS011;54190;49.770;9.250;2022-10-16T02:41:37;3.43;;;0.90;;
67272;SDS011;54190;49.770;9.250;2022-10-16T02:44:03;2.27;;;1.00;;
67272;SDS011;54190;49.770;9.250;2022-10-16T02:46:29;1.80;;;1.00;;
67272;SDS011;54190;49.770;9.250;2022-10-16T02:48:54;1.80;;;1.00;;
67272;SDS011;54190;49.770;9.250;2022-10-16T02:51:20;2.00;;;1.30;;
67272;SDS011;54190;49.770;9.250;2022-10-16T02:53:47;2.33;;;1.20;;
67272;SDS011;54190;49.770;9.250;2022-10-16T02:56:12;2.07;;;1.40;;
67272;SDS011;54190;49.770;9.250;2022-10-16T02:58:38;3.00;;;1.53;;
67272;SDS011;54190;49.770;9.250;2022-10-16T03:01:04;2.30;;;1.50;;
67272;SDS011;54190;49.770;9.250;2022-10-16T03:03:29;8.70;;;1.70;;
67272;SDS011;54190;49.770;9.250;2022-10-16T03:05:55;2.90;;;1.90;;
67272;SDS011;54190;49.770;9.250;2022-10-16T03:08:20;3.23;;;1.97;;
67272;SDS011;54190;49.770;9.250;2022-10-16T03:10:49;3.60;;;1.60;;
67272;SDS011;54190;49.770;9.250;2022-10-16T03:13:15;2.70;;;2.37;;
67272;SDS011;54190;49.770;9.250;2022-10-16T03:15:41;2.50;;;1.60;;
67272;SDS011;54190;49.770;9.250;2022-10-16T03:18:06;2.00;;;1.50;;
67272;SDS011;54190;49.770;9.250;2022-10-16T03:20:32;2.40;;;1.60;;
67272;SDS011;54190;49.770;9.250;2022-10-16T03:22:58;2.40;;;1.53;;
67272;SDS011;54190;49.770;9.250;2022-10-16T03:25:24;2.83;;;1.40;;
67272;SDS011;54190;49.770;9.250;2022-10-16T03:27:50;2.20;;;1.70;;
67272;SDS011;54190;49.770;9.250;2022-10-16T03:30:15;3.57;;;1.40;;
67272;SDS011;54190;49.770;9.250;2022-10-16T03:32:41;8.47;;;1.33;;
67272;SDS011;54190;49.770;9.250;2022-10-16T03:35:09;3.90;;;1.20;;
67272;SDS011;54190;49.770;9.250;2022-10-16T03:37:34;6.83;;;1.57;;
67272;SDS011;54190;49.770;9.250;2022-10-16T03:40:00;2.27;;;1.30;;
67272;SDS011;54190;49.770;9.250;2022-10-16T03:42:26;2.50;;;1.30;;
67272;SDS011;54190;49.770;9.250;2022-10-16T03:44:52;3.70;;;1.20;;
67272;SDS011;54190;49.770;9.250;2022-10-16T03:47:17;1.80;;;1.20;;
67272;SDS011;54190;49.770;9.250;2022-10-16T03:49:46;5.97;;;1.57;;
67272;SDS011;54190;49.770;9.250;2022-10-16T03:52:13;2.07;;;1.20;;
67272;SDS011;54190;49.770;9.250;2022-10-16T03:54:38;2.00;;;1.10;;
67272;SDS011;54190;49.770;9.250;2022-10-16T03:57:04;5.00;;;1.43;;
67272;SDS011;54190;49.770;9.250;2022-10-16T03:59:30;4.73;;;1.60;;
67272;SDS011;54190;49.770;9.250;2022-10-16T04:01:56;5.60;;;1.30;;
67272;SDS011;54190;49.770;9.250;2022-10-16T04:04:22;5.20;;;1.20;;
67272;SDS011;54190;49.770;9.250;2022-10-16T04:06:49;2.10;;;1.10;;
67272;SDS011;54190;49.770;9.250;2022-10-16T04:09:14;4.33;;;1.20;;
67272;SDS011;54190;49.770;9.250;2022-10-16T04:11:40;2.83;;;1.30;;
67272;SDS011;54190;49.770;9.250;2022-10-16T04:14:06;4.77;;;1.40;;
67272;SDS011;54190;49.770;9.250;2022-10-16T04:16:32;2.00;;;1.27;;
67272;SDS011;54190;49.770;9.250;2022-10-16T04:18:57;3.93;;;1.57;;
67272;SDS011;54190;49.770;9.250;2022-10-16T04:21:23;2.10;;;1.40;;
67272;SDS011;54190;49.770;9.250;2022-10-16T04:23:49;4.13;;;1.53;;
67272;SDS011;54190;49.770;9.250;2022-10-16T04:26:14;3.07;;;1.67;;
67272;SDS011;54190;49.770;9.250;2022-10-16T04:28:40;4.53;;;2.13;;
67272;SDS011;54190;49.770;9.250;2022-10-16T04:31:06;3.17;;;2.00;;
67272;SDS011;54190;49.770;9.250;2022-10-16T04:33:32;3.57;;;2.20;;
67272;SDS011;54190;49.770;9.250;2022-10-16T04:35:59;3.73;;;2.10;;
67272;SDS011;54190;49.770;9.250;2022-10-16T04:38:25;5.10;;;2.03;;
67272;SDS011;54190;49.770;9.250;2022-10-16T04:40:51;8.10;;;2.00;;
67272;SDS011;54190;49.770;9.250;2022-10-16T04:43:17;3.83;;;2.43;;
67272;SDS011;54190;49.770;9.250;2022-10-16T04:45:43;2.90;;;2.10;;
67272;SDS011;54190;49.770;9.250;2022-10-16T04:48:09;4.83;;;2.07;;
67272;SDS011;54190;49.770;9.250;2022-10-16T04:50:35;4.50;;;3.20;;
67272;SDS011;54190;49.770;9.250;2022-10-16T04:53:04;6.40;;;2.30;;
67272;SDS011;54190;49.770;9.250;2022-10-16T04:55:30;4.10;;;2.20;;
67272;SDS011;54190;49.770;9.250;2022-10-16T04:57:56;2.93;;;2.37;;
67272;SDS011;54190;49.770;9.250;2022-10-16T05:00:21;5.00;;;2.43;;
67272;SDS011;54190;49.770;9.250;2022-10-16T05:02:49;3.73;;;2.10;;
67272;SDS011;54190;49.770;9.250;2022-10-16T05:05:15;3.63;;;2.27;;
67272;SDS011;54190;49.770;9.250;2022-10-16T05:07:41;3.27;;;2.30;;
67272;SDS011;54190;49.770;9.250;2022-10-16T05:10:06;3.10;;;2.10;;
67272;SDS011;54190;49.770;9.250;2022-10-16T05:12:32;7.73;;;5.63;;
67272;SDS011;54190;49.770;9.250;2022-10-16T05:14:59;9.00;;;7.43;;
67272;SDS011;54190;49.770;9.250;2022-10-16T05:17:25;7.73;;;4.97;;
67272;SDS011;54190;49.770;9.250;2022-10-16T05:19:51;5.00;;;3.70;;
67272;SDS011;54190;49.770;9.250;2022-10-16T05:22:19;6.90;;;3.00;;
67272;SDS011;54190;49.770;9.250;2022-10-16T05:24:44;4.80;;;3.07;;
67272;SDS011;54190;49.770;9.250;2022-10-16T05:27:10;2.53;;;2.03;;
67272;SDS011;54190;49.770;9.250;2022-10-16T05:29:36;5.37;;;2.13;;
67272;SDS011;54190;49.770;9.250;2022-10-16T05:32:02;7.50;;;2.27;;
67272;SDS011;54190;49.770;9.250;2022-10-16T05:34:28;3.60;;;2.77;;
67272;SDS011;54190;49.770;9.250;2022-10-16T05:36:53;5.57;;;2.73;;
67272;SDS011;54190;49.770;9.250;2022-10-16T05:39:19;4.17;;;2.80;;
67272;SDS011;54190;49.770;9.250;2022-10-16T05:41:45;5.30;;;2.37;;
67272;SDS011;54190;49.770;9.250;2022-10-16T05:44:11;2.73;;;2.07;;
67272;SDS011;54190;49.770;9.250;2022-10-16T05:46:37;5.00;;;2.33;;
67272;SDS011;54190;49.770;9.250;2022-10-16T05:49:03;7.40;;;3.53;;
67272;SDS011;54190;49.770;9.250;2022-10-16T05:51:28;14.40;;;9.40;;
67272;SDS011;54190;49.770;9.250;2022-10-16T05:53:54;6.70;;;5.40;;
67272;SDS011;54190;49.770;9.250;2022-10-16T05:56:20;12.40;;;6.13;;
67272;SDS011;54190;49.770;9.250;2022-10-16T05:58:45;10.07;;;5.63;;
67272;SDS011;54190;49.770;9.250;2022-10-16T06:01:12;8.10;;;5.67;;
67272;SDS011;54190;49.770;9.250;2022-10-16T06:03:40;6.87;;;4.27;;
67272;SDS011;54190;49.770;9.250;2022-10-16T06:06:10;8.17;;;5.07;;
67272;SDS011;54190;49.770;9.250;2022-10-16T06:08:46;5.23;;;3.40;;
67272;SDS011;54190;49.770;9.250;2022-10-16T06:11:20;8.53;;;4.33;;
67272;SDS011;54190;49.770;9.250;2022-10-16T06:13:55;7.50;;;4.80;;
67272;SDS011;54190;49.770;9.250;2022-10-16T06:16:23;10.83;;;5.50;;
67272;SDS011;54190;49.770;9.250;2022-10-16T06:18:50;8.27;;;5.50;;
67272;SDS011;54190;49.770;9.250;2022-10-16T06:21:18;7.07;;;5.43;;
67272;SDS011;54190;49.770;9.250;2022-10-16T06:23:46;5.80;;;4.57;;
67272;SDS011;54190;49.770;9.250;2022-10-16T06:26:13;7.60;;;6.17;;
67272;SDS011;54190;49.770;9.250;2022-10-16T06:28:41;7.37;;;6.40;;
67272;SDS011;54190;49.770;9.250;2022-10-16T06:31:07;7.80;;;4.97;;
67272;SDS011;54190;49.770;9.250;2022-10-16T06:33:34;5.40;;;4.57;;
67272;SDS011;54190;49.770;9.250;2022-10-16T06:36:01;8.10;;;4.50;;
67272;SDS011;54190;49.770;9.250;2022-10-16T06:38:30;6.97;;;4.40;;
67272;SDS011;54190;49.770;9.250;2022-10-16T06:40:56;8.33;;;4.13;;
67272;SDS011;54190;49.770;9.250;2022-10-16T06:43:22;7.77;;;3.97;;
67272;SDS011;54190;49.770;9.250;2022-10-16T06:45:54;6.97;;;3.83;;
67272;SDS011;54190;49.770;9.250;2022-10-16T06:48:21;7.73;;;3.23;;
67272;SDS011;54190;49.770;9.250;2022-10-16T06:53:28;4.87;;;2.70;;
67272;SDS011;54190;49.770;9.250;2022-10-16T06:55:55;13.33;;;2.50;;
67272;SDS011;54190;49.770;9.250;2022-10-16T06:58:21;4.23;;;1.90;;
67272;SDS011;54190;49.770;9.250;2022-10-16T07:00:47;5.13;;;2.40;;
67272;SDS011;54190;49.770;9.250;2022-10-16T07:03:13;5.10;;;2.33;;
67272;SDS011;54190;49.770;9.250;2022-10-16T07:05:40;3.03;;;2.00;;
67272;SDS011;54190;49.770;9.250;2022-10-16T07:08:06;6.10;;;2.63;;
67272;SDS011;54190;49.770;9.250;2022-10-16T07:10:33;5.40;;;2.47;;
67272;SDS011;54190;49.770;9.250;2022-10-16T07:12:59;5.33;;;2.80;;
67272;SDS011;54190;49.770;9.250;2022-10-16T07:15:25;8.33;;;6.10;;
67272;SDS011;54190;49.770;9.250;2022-10-16T07:17:51;14.73;;;10.40;;
67272;SDS011;54190;49.770;9.250;2022-10-16T07:20:17;17.90;;;10.33;;
67272;SDS011;54190;49.770;9.250;2022-10-16T07:22:44;18.90;;;11.47;;
67272;SDS011;54190;49.770;9.250;2022-10-16T07:25:10;10.30;;;6.37;;
67272;SDS011;54190;49.770;9.250;2022-10-16T07:27:36;5.17;;;3.20;;
67272;SDS011;54190;49.770;9.250;2022-10-16T07:30:02;6.20;;;4.30;;
67272;SDS011;54190;49.770;9.250;2022-10-16T07:32:28;5.67;;;2.50;;
67272;SDS011;54190;49.770;9.250;2022-10-16T07:34:54;9.90;;;5.70;;
67272;SDS011;54190;49.770;9.250;2022-10-16T07:37:21;20.97;;;14.90;;
67272;SDS011;54190;49.770;9.250;2022-10-16T07:39:47;15.90;;;11.47;;
67272;SDS011;54190;49.770;9.250;2022-10-16T07:42:13;13.80;;;9.73;;
67272;SDS011;54190;49.770;9.250;2022-10-16T07:44:39;13.10;;;6.63;;
67272;SDS011;54190;49.770;9.250;2022-10-16T07:47:05;6.00;;;2.70;;
67272;SDS011;54190;49.770;9.250;2022-10-16T07:49:31;9.10;;;5.73;;
67272;SDS011;54190;49.770;9.250;2022-10-16T07:51:57;4.83;;;3.10;;
67272;SDS011;54190;49.770;9.250;2022-10-16T07:54:23;15.43;;;12.20;;
67272;SDS011;54190;49.770;9.250;2022-10-16T07:56:48;9.60;;;6.57;;
67272;SDS011;54190;49.770;9.250;2022-10-16T07:59:14;11.07;;;7.20;;
67272;SDS011;54190;49.770;9.250;2022-10-16T08:01:40;15.27;;;4.50;;
67272;SDS011;54190;49.770;9.250;2022-10-16T08:04:07;3.10;;;2.57;;
67272;SDS011;54190;49.770;9.250;2022-10-16T08:06:37;19.27;;;12.00;;
67272;SDS011;54190;49.770;9.250;2022-10-16T08:09:04;14.97;;;12.80;;
67272;SDS011;54190;49.770;9.250;2022-10-16T08:11:31;5.40;;;4.40;;
67272;SDS011;54190;49.770;9.250;2022-10-16T08:13:56;9.20;;;6.90;;
67272;SDS011;54190;49.770;9.250;2022-10-16T08:16:22;31.30;;;26.10;;
67272;SDS011;54190;49.770;9.250;2022-10-16T08:18:48;13.00;;;7.23;;
67272;SDS011;54190;49.770;9.250;2022-10-16T08:21:16;23.77;;;19.57;;
67272;SDS011;54190;49.770;9.250;2022-10-16T08:23:43;6.37;;;5.47;;
67272;SDS011;54190;49.770;9.250;2022-10-16T08:26:09;6.63;;;3.77;;
67272;SDS011;54190;49.770;9.250;2022-10-16T08:28:36;10.50;;;3.90;;
67272;SDS011;54190;49.770;9.250;2022-10-16T08:31:08;7.07;;;4.10;;
67272;SDS011;54190;49.770;9.250;2022-10-16T08:33:36;6.07;;;3.30;;
67272;SDS011;54190;49.770;9.250;2022-10-16T08:36:03;6.90;;;5.57;;
67272;SDS011;54190;49.770;9.250;2022-10-16T08:38:31;14.00;;;7.10;;
67272;SDS011;54190;49.770;9.250;2022-10-16T08:41:03;8.00;;;5.77;;
67272;SDS011;54190;49.770;9.250;2022-10-16T08:46:21;14.40;;;7.90;;
67272;SDS011;54190;49.770;9.250;2022-10-16T08:49:01;13.30;;;11.90;;
67272;SDS011;54190;49.770;9.250;2022-10-16T08:51:32;8.93;;;4.63;;
67272;SDS011;54190;49.770;9.250;2022-10-16T08:54:04;14.00;;;11.43;;
67272;SDS011;54190;49.770;9.250;2022-10-16T08:56:32;9.40;;;3.87;;
67272;SDS011;54190;49.770;9.250;2022-10-16T08:58:59;7.07;;;3.97;;
67272;SDS011;54190;49.770;9.250;2022-10-16T09:01:28;8.03;;;4.00;;
67272;SDS011;54190;49.770;9.250;2022-10-16T09:04:07;5.00;;;3.07;;
67272;SDS011;54190;49.770;9.250;2022-10-16T09:06:56;5.53;;;3.03;;
67272;SDS011;54190;49.770;9.250;2022-10-16T09:12:10;7.20;;;4.50;;
67272;SDS011;54190;49.770;9.250;2022-10-16T09:14:58;5.23;;;3.70;;
67272;SDS011;54190;49.770;9.250;2022-10-16T09:17:42;17.60;;;9.40;;
67272;SDS011;54190;49.770;9.250;2022-10-16T09:23:35;19.30;;;14.20;;
67272;SDS011;54190;49.770;9.250;2022-10-16T09:26:02;26.37;;;20.00;;
67272;SDS011;54190;49.770;9.250;2022-10-16T09:28:30;16.67;;;13.00;;
67272;SDS011;54190;49.770;9.250;2022-10-16T09:30:56;15.80;;;11.23;;
67272;SDS011;54190;49.770;9.250;2022-10-16T09:33:23;11.60;;;8.43;;
67272;SDS011;54190;49.770;9.250;2022-10-16T09:35:53;18.80;;;10.43;;
67272;SDS011;54190;49.770;9.250;2022-10-16T09:38:27;22.23;;;13.63;;
67272;SDS011;54190;49.770;9.250;2022-10-16T09:40:54;12.70;;;5.43;;
67272;SDS011;54190;49.770;9.250;2022-10-16T09:43:23;7.80;;;3.80;;
67272;SDS011;54190;49.770;9.250;2022-10-16T09:45:54;8.73;;;3.70;;
67272;SDS011;54190;49.770;9.250;2022-10-16T09:48:26;9.50;;;3.33;;
67272;SDS011;54190;49.770;9.250;2022-10-16T09:50:57;4.17;;;2.73;;
67272;SDS011;54190;49.770;9.250;2022-10-16T09:53:26;4.43;;;3.20;;
67272;SDS011;54190;49.770;9.250;2022-10-16T09:56:03;6.23;;;3.37;;
67272;SDS011;54190;49.770;9.250;2022-10-16T09:58:31;5.97;;;3.43;;
67272;SDS011;54190;49.770;9.250;2022-10-16T10:00:58;4.27;;;2.60;;
67272;SDS011;54190;49.770;9.250;2022-10-16T10:06:15;6.03;;;3.00;;
67272;SDS011;54190;49.770;9.250;2022-10-16T10:11:38;3.73;;;2.17;;
67272;SDS011;54190;49.770;9.250;2022-10-16T10:14:17;4.20;;;2.10;;
67272;SDS011;54190;49.770;9.250;2022-10-16T10:16:51;3.83;;;2.10;;
67272;SDS011;54190;49.770;9.250;2022-10-16T10:19:19;8.03;;;2.27;;
67272;SDS011;54190;49.770;9.250;2022-10-16T10:21:50;3.57;;;2.17;;
67272;SDS011;54190;49.770;9.250;2022-10-16T10:24:18;3.57;;;2.07;;
67272;SDS011;54190;49.770;9.250;2022-10-16T10:26:47;3.90;;;1.83;;
67272;SDS011;54190;49.770;9.250;2022-10-16T10:32:20;2.83;;;1.70;;
67272;SDS011;54190;49.770;9.250;2022-10-16T10:37:59;3.73;;;2.10;;
67272;SDS011;54190;49.770;9.250;2022-10-16T10:40:40;5.30;;;2.50;;
67272;SDS011;54190;49.770;9.250;2022-10-16T10:46:32;5.30;;;2.00;;
67272;SDS011;54190;49.770;9.250;2022-10-16T10:49:16;2.87;;;1.70;;
67272;SDS011;54190;49.770;9.250;2022-10-16T10:57:00;2.90;;;1.77;;
67272;SDS011;54190;49.770;9.250;2022-10-16T10:59:35;2.97;;;1.87;;
67272;SDS011;54190;49.770;9.250;2022-10-16T11:02:11;5.43;;;1.60;;
67272;SDS011;54190;49.770;9.250;2022-10-16T11:07:57;3.97;;;1.43;;
67272;SDS011;54190;49.770;9.250;2022-10-16T11:10:35;2.47;;;1.73;;
67272;SDS011;54190;49.770;9.250;2022-10-16T11:16:06;2.97;;;1.90;;
67272;SDS011;54190;49.770;9.250;2022-10-16T11:21:12;4.63;;;1.80;;
67272;SDS011;54190;49.770;9.250;2022-10-16T11:26:21;2.50;;;1.60;;
67272;SDS011;54190;49.770;9.250;2022-10-16T11:28:54;3.30;;;1.83;;
67272;SDS011;54190;49.770;9.250;2022-10-16T11:33:57;3.90;;;1.70;;
67272;SDS011;54190;49.770;9.250;2022-10-16T11:39:21;3.43;;;1.80;;
67272;SDS011;54190;49.770;9.250;2022-10-16T11:41:56;2.60;;;1.90;;
67272;SDS011;54190;49.770;9.250;2022-10-16T11:49:56;4.50;;;1.77;;
67272;SDS011;54190;49.770;9.250;2022-10-16T11:52:27;2.47;;;1.47;;
67272;SDS011;54190;49.770;9.250;2022-10-16T11:55:18;3.73;;;1.57;;
67272;SDS011;54190;49.770;9.250;2022-10-16T11:57:51;3.37;;;1.60;;
67272;SDS011;54190;49.770;9.250;2022-10-16T12:02:56;3.40;;;1.43;;
67272;SDS011;54190;49.770;9.250;2022-10-16T12:10:40;3.50;;;1.60;;
67272;SDS011;54190;49.770;9.250;2022-10-16T12:18:39;7.20;;;2.20;;
67272;SDS011;54190;49.770;9.250;2022-10-16T12:21:06;4.60;;;2.00;;
67272;SDS011;54190;49.770;9.250;2022-10-16T12:23:46;3.47;;;1.90;;
67272;SDS011;54190;49.770;9.250;2022-10-16T12:26:14;3.30;;;2.03;;
67272;SDS011;54190;49.770;9.250;2022-10-16T12:28:49;3.27;;;1.73;;
67272;SDS011;54190;49.770;9.250;2022-10-16T12:31:16;3.80;;;2.07;;
67272;SDS011;54190;49.770;9.250;2022-10-16T12:36:43;3.67;;;1.87;;
67272;SDS011;54190;49.770;9.250;2022-10-16T12:39:16;5.10;;;2.27;;
67272;SDS011;54190;49.770;9.250;2022-10-16T12:41:47;2.47;;;2.03;;
67272;SDS011;54190;49.770;9.250;2022-10-16T12:44:24;5.03;;;2.23;;
67272;SDS011;54190;49.770;9.250;2022-10-16T12:46:55;4.73;;;2.20;;
67272;SDS011;54190;49.770;9.250;2022-10-16T12:49:22;3.10;;;2.00;;
67272;SDS011;54190;49.770;9.250;2022-10-16T12:51:55;3.53;;;2.47;;
67272;SDS011;54190;49.770;9.250;2022-10-16T13:02:25;6.10;;;2.17;;
67272;SDS011;54190;49.770;9.250;2022-10-16T13:22:21;3.73;;;2.40;;
67272;SDS011;54190;49.770;9.250;2022-10-16T13:24:56;4.73;;;2.60;;
67272;SDS011;54190;49.770;9.250;2022-10-16T13:29:52;5.33;;;2.30;;
67272;SDS011;54190;49.770;9.250;2022-10-16T13:32:24;3.20;;;2.13;;
67272;SDS011;54190;49.770;9.250;2022-10-16T13:34:51;3.67;;;2.10;;
67272;SDS011;54190;49.770;9.250;2022-10-16T13:37:19;3.37;;;2.40;;
67272;SDS011;54190;49.770;9.250;2022-10-16T13:39:47;4.00;;;2.33;;
67272;SDS011;54190;49.770;9.250;2022-10-16T13:44:49;3.60;;;1.87;;
67272;SDS011;54190;49.770;9.250;2022-10-16T13:47:20;7.93;;;2.60;;
67272;SDS011;54190;49.770;9.250;2022-10-16T13:49:48;3.10;;;1.90;;
67272;SDS011;54190;49.770;9.250;2022-10-16T13:52:26;6.13;;;1.90;;
67272;SDS011;54190;49.770;9.250;2022-10-16T13:54:52;3.47;;;2.10;;
67272;SDS011;54190;49.770;9.250;2022-10-16T13:57:18;4.50;;;2.10;;
67272;SDS011;54190;49.770;9.250;2022-10-16T13:59:48;4.67;;;2.20;;
67272;SDS011;54190;49.770;9.250;2022-10-16T14:02:35;3.30;;;2.37;;
67272;SDS011;54190;49.770;9.250;2022-10-16T14:05:01;4.00;;;2.73;;
67272;SDS011;54190;49.770;9.250;2022-10-16T14:07:30;4.10;;;2.50;;
67272;SDS011;54190;49.770;9.250;2022-10-16T14:10:03;3.60;;;2.70;;
67272;SDS011;54190;49.770;9.250;2022-10-16T14:12:32;6.97;;;2.70;;
67272;SDS011;54190;49.770;9.250;2022-10-16T14:14:58;7.80;;;2.70;;
67272;SDS011;54190;49.770;9.250;2022-10-16T14:19:53;4.63;;;2.50;;
67272;SDS011;54190;49.770;9.250;2022-10-16T14:22:34;5.47;;;2.70;;
67272;SDS011;54190;49.770;9.250;2022-10-16T14:25:24;5.00;;;2.97;;
67272;SDS011;54190;49.770;9.250;2022-10-16T14:28:14;7.20;;;3.73;;
67272;SDS011;54190;49.770;9.250;2022-10-16T14:36:13;11.57;;;2.60;;
67272;SDS011;54190;49.770;9.250;2022-10-16T14:38:42;6.80;;;2.50;;
67272;SDS011;54190;49.770;9.250;2022-10-16T14:41:13;7.37;;;2.60;;
67272;SDS011;54190;49.770;9.250;2022-10-16T14:43:41;5.80;;;2.30;;
67272;SDS011;54190;49.770;9.250;2022-10-16T14:46:12;7.93;;;2.70;;
67272;SDS011;54190;49.770;9.250;2022-10-16T14:49:18;2.90;;;2.10;;
67272;SDS011;54190;49.770;9.250;2022-10-16T14:51:45;3.20;;;2.30;;
67272;SDS011;54190;49.770;9.250;2022-10-16T14:54:12;6.50;;;2.60;;
67272;SDS011;54190;49.770;9.250;2022-10-16T14:56:52;7.90;;;2.73;;
67272;SDS011;54190;49.770;9.250;2022-10-16T14:59:30;3.73;;;2.40;;
67272;SDS011;54190;49.770;9.250;2022-10-16T15:01:57;9.90;;;2.60;;
67272;SDS011;54190;49.770;9.250;2022-10-16T15:04:23;3.83;;;2.07;;
67272;SDS011;54190;49.770;9.250;2022-10-16T15:06:49;7.93;;;2.60;;
67272;SDS011;54190;49.770;9.250;2022-10-16T15:09:15;9.40;;;2.13;;
67272;SDS011;54190;49.770;9.250;2022-10-16T15:11:41;6.13;;;2.30;;
67272;SDS011;54190;49.770;9.250;2022-10-16T15:14:08;6.40;;;2.73;;
67272;SDS011;54190;49.770;9.250;2022-10-16T15:16:38;5.00;;;2.40;;
67272;SDS011;54190;49.770;9.250;2022-10-16T15:19:04;4.70;;;2.63;;
67272;SDS011;54190;49.770;9.250;2022-10-16T15:21:30;6.40;;;2.40;;
67272;SDS011;54190;49.770;9.250;2022-10-16T15:23:57;4.00;;;2.37;;
67272;SDS011;54190;49.770;9.250;2022-10-16T15:26:25;5.87;;;2.80;;
67272;SDS011;54190;49.770;9.250;2022-10-16T15:28:55;7.70;;;2.33;;
67272;SDS011;54190;49.770;9.250;2022-10-16T15:31:21;6.67;;;2.70;;
67272;SDS011;54190;49.770;9.250;2022-10-16T15:33:49;8.10;;;2.67;;
67272;SDS011;54190;49.770;9.250;2022-10-16T15:36:24;4.23;;;2.67;;
67272;SDS011;54190;49.770;9.250;2022-10-16T15:38:51;8.57;;;3.07;;
67272;SDS011;54190;49.770;9.250;2022-10-16T15:41:18;10.70;;;2.60;;
67272;SDS011;54190;49.770;9.250;2022-10-16T15:43:43;4.00;;;2.43;;
67272;SDS011;54190;49.770;9.250;2022-10-16T15:46:10;4.30;;;2.60;;
67272;SDS011;54190;49.770;9.250;2022-10-16T15:48:39;12.33;;;7.17;;
67272;SDS011;54190;49.770;9.250;2022-10-16T15:51:06;23.60;;;18.07;;
67272;SDS011;54190;49.770;9.250;2022-10-16T15:53:33;10.20;;;3.93;;
67272;SDS011;54190;49.770;9.250;2022-10-16T15:56:05;7.13;;;5.30;;
67272;SDS011;54190;49.770;9.250;2022-10-16T15:58:31;9.03;;;4.37;;
67272;SDS011;54190;49.770;9.250;2022-10-16T16:00:58;6.57;;;3.00;;
67272;SDS011;54190;49.770;9.250;2022-10-16T16:03:28;5.33;;;2.90;;
67272;SDS011;54190;49.770;9.250;2022-10-16T16:05:55;4.50;;;2.70;;
67272;SDS011;54190;49.770;9.250;2022-10-16T16:08:21;6.07;;;2.60;;
67272;SDS011;54190;49.770;9.250;2022-10-16T16:11:03;5.93;;;2.50;;
67272;SDS011;54190;49.770;9.250;2022-10-16T16:13:36;10.03;;;2.50;;
67272;SDS011;54190;49.770;9.250;2022-10-16T16:16:10;4.93;;;2.30;;
67272;SDS011;54190;49.770;9.250;2022-10-16T16:18:37;5.83;;;2.80;;
67272;SDS011;54190;49.770;9.250;2022-10-16T16:21:04;5.93;;;2.63;;
67272;SDS011;54190;49.770;9.250;2022-10-16T16:23:30;6.97;;;2.83;;
67272;SDS011;54190;49.770;9.250;2022-10-16T16:26:29;4.80;;;2.73;;
67272;SDS011;54190;49.770;9.250;2022-10-16T16:28:51;6.77;;;2.53;;
67272;SDS011;54190;49.770;9.250;2022-10-16T16:31:18;5.73;;;2.90;;
67272;SDS011;54190;49.770;9.250;2022-10-16T16:33:44;8.77;;;4.30;;
67272;SDS011;54190;49.770;9.250;2022-10-16T16:36:09;8.20;;;4.30;;
67272;SDS011;54190;49.770;9.250;2022-10-16T16:38:35;8.90;;;5.10;;
67272;SDS011;54190;49.770;9.250;2022-10-16T16:41:10;9.93;;;4.13;;
67272;SDS011;54190;49.770;9.250;2022-10-16T16:43:44;7.70;;;5.40;;
67272;SDS011;54190;49.770;9.250;2022-10-16T16:46:10;7.60;;;4.20;;
67272;SDS011;54190;49.770;9.250;2022-10-16T16:48:36;6.60;;;3.47;;
67272;SDS011;54190;49.770;9.250;2022-10-16T16:51:10;9.57;;;4.73;;
67272;SDS011;54190;49.770;9.250;2022-10-16T16:53:48;9.53;;;6.07;;
67272;SDS011;54190;49.770;9.250;2022-10-16T16:56:16;62.07;;;33.97;;
67272;SDS011;54190;49.770;9.250;2022-10-16T16:58:46;77.57;;;41.73;;
67272;SDS011;54190;49.770;9.250;2022-10-16T17:01:14;53.90;;;28.00;;
67272;SDS011;54190;49.770;9.250;2022-10-16T17:03:41;31.87;;;18.10;;
67272;SDS011;54190;49.770;9.250;2022-10-16T17:06:11;20.23;;;11.97;;
67272;SDS011;54190;49.770;9.250;2022-10-16T17:08:39;18.37;;;11.20;;